Nearby METAR Reports

 

KFRG - , , USA
Distance from station: SSW 12mi, 20km
Updated: 05/28/2017 7:53pm
Clear
Clear
 Wind from ESE
Wind: ESE 10 mph , 17 km/h
Temperature: 61°F , 16°C
Dew Point: 52°F , 11°C
Humidity: 72%
Barometer: 29.95 inHg , 1014.2 hPa
Clouds: Clear
Visibility: 10 miles , 16 km
2017/05/28 23:53 KFRG 282353Z 12009KT 10SM CLR 16/11 A2995 RMK AO2 SLP142 T01560106 10189 20156 50000
KISP - , , USA
Distance from station: ESE 14mi, 23km
Updated: 05/28/2017 6:56pm
Partly Cloudy
Partly Cloudy
 Wind from SE
Wind: SE 13 mph , 20 km/h
Temperature: 61°F , 16°C
Dew Point: 52°F , 11°C
Humidity: 72%
Barometer: 29.97 inHg , 1014.9 hPa
Clouds: Partly Cloudy
Visibility: 10 miles , 16 km
Cloud details: Partly Cloudy 7000 ft
2017/05/28 22:56 KISP 282256Z 13011KT 10SM SCT070 16/11 A2997 RMK AO2 SLP147 T01560106 $
 
KBDR - , , USA
Distance from station: NNE 21mi, 34km
Updated: 05/28/2017 7:52pm
Clear
Clear
 Wind from SE
Wind: SE 6 mph , 9 km/h
Temperature: 63°F , 17°C
Dew Point: 50°F , 10°C
Humidity: 64%
Barometer: 29.97 inHg , 1014.9 hPa
Clouds: Clear
Visibility: 10 miles , 16 km
2017/05/28 23:52 KBDR 282352Z 14005KT 10SM CLR 17/10 A2997 RMK AO2 SLP148 T01670100 10206 20167 51007 $
KHPN - , , USA
Distance from station: WNW 22mi, 35km
Updated: 05/28/2017 6:56pm
Few Clouds
Few Clouds
 Wind from SE
Wind: SE 13 mph , 20 km/h
Temperature: 63°F , 17°C
Dew Point: 48°F , 9°C
Humidity: 59%
Barometer: 29.95 inHg , 1014.2 hPa
Clouds: Few Clouds
Visibility: 10 miles , 16 km
Cloud details: Few Clouds 4000 ft
2017/05/28 22:56 KHPN 282256Z 13011KT 10SM FEW040 17/09 A2995 RMK AO2 SLP139 T01720089
 
KHWV - , , USA
Distance from station: ESE 26mi, 41km
Updated: 05/28/2017 6:56pm
Clear
Clear
 Wind from varies
Wind: varies 6 mph , 9 km/h
Temperature: 59°F , 15°C
Dew Point: 52°F , 11°C
Humidity: 77%
Barometer: 29.98 inHg , 1015.2 hPa
Clouds: Clear
Visibility: 10 miles , 16 km
2017/05/28 22:56 KHWV 282256Z AUTO VRB05KT 10SM CLR 15/11 A2998 RMK AO2 SLP152 T01500111
KJFK - , , USA
Distance from station: SW 29mi, 46km
Updated: 05/28/2017 7:51pm
Overcast
Overcast
 Wind from E
Wind: E 13 mph , 20 km/h
Temperature: 63°F , 17°C
Dew Point: 54°F , 12°C
Humidity: 73%
Barometer: 29.95 inHg , 1014.2 hPa
Clouds: Overcast
Visibility: 10 miles , 16 km
Cloud details: Few Clouds 7000 ft
Mostly Cloudy 10000 ft
Mostly Cloudy 15000 ft
Overcast 20000 ft
2017/05/28 23:51 KJFK 282351Z 10011KT 10SM FEW070 BKN100 BKN150 OVC200 17/12 A2995 RMK AO2 SLP142 T01670122 10200 20167 58001
 
KLGA - , , USA
Distance from station: WSW 29mi, 47km
Updated: 05/28/2017 7:51pm
Overcast
Overcast
 Wind from SE
Wind: SE 10 mph , 17 km/h
Temperature: 64°F , 18°C
Dew Point: 48°F , 9°C
Humidity: 56%
Barometer: 29.94 inHg , 1013.9 hPa
Clouds: Overcast
Visibility: 10 miles , 16 km
Cloud details: Partly Cloudy 7000 ft
Mostly Cloudy 18000 ft
Overcast 25000 ft
2017/05/28 23:51 KLGA 282351Z 14009KT 10SM SCT070 BKN180 OVC250 18/09 A2994 RMK AO2 SLP139 T01830094 10217 20183 51003